Time;durP1;ratioP1;P1;durP2;ratioP2;P2;SDS_P1;SDS_P2;PMS_P1;PMS_P2;Temp;Humidity;BMP_temperature;BMP_pressure;BME280_temperature;BME280_humidity;BME280_pressure;Samples;Min_cycle;Max_cycle;Signal;HPM_P1;HPM_P2
2021/11/14 00:01:23;;;;;;;112.12;24.75;;;;;;;-2.21;100.00;102367.27;1617634;88;21508;-82
2021/11/14 00:03:49;;;;;;;96.72;25.08;;;;;;;-2.19;100.00;102369.30;1617772;88;21072;-82
2021/11/14 00:06:20;;;;;;;99.67;25.10;;;;;;;-2.16;100.00;102380.09;1617706;88;20874;-82
2021/11/14 00:08:44;;;;;;;70.72;23.55;;;;;;;-2.14;100.00;102371.56;1617154;88;21063;-82
2021/11/14 00:11:14;;;;;;;71.15;25.48;;;;;;;-2.12;100.00;102371.79;1617562;88;20925;-82
2021/11/14 00:13:43;;;;;;;70.40;22.77;;;;;;;-2.11;100.00;102379.22;1617777;88;21048;-82
2021/11/14 00:16:11;;;;;;;71.15;23.98;;;;;;;-2.05;100.00;102374.73;1617675;88;21041;-82
2021/11/14 00:18:41;;;;;;;68.75;23.52;;;;;;;-2.07;100.00;102374.02;1617618;88;21055;-82
2021/11/14 00:21:10;;;;;;;66.33;23.32;;;;;;;-2.07;100.00;102369.56;1617511;88;21177;-82
2021/11/14 00:23:36;;;;;;;72.45;24.20;;;;;;;-2.03;100.00;102366.16;1617338;88;21131;-82
2021/11/14 00:26:02;;;;;;;69.58;23.02;;;;;;;-2.02;100.00;102365.22;1617706;88;21024;-82
2021/11/14 00:28:29;;;;;;;70.28;22.37;;;;;;;-2.02;100.00;102369.18;1617705;88;21532;-82
2021/11/14 00:30:55;;;;;;;63.60;23.15;;;;;;;-2.02;100.00;102369.18;1614325;88;21024;-82
2021/11/14 00:33:21;;;;;;;68.15;23.22;;;;;;;-2.01;100.00;102369.52;1590842;89;21109;-82
2021/11/14 00:35:51;;;;;;;67.42;23.47;;;;;;;-2.00;100.00;102365.06;1578252;90;21067;-82
2021/11/14 00:38:15;;;;;;;60.35;22.48;;;;;;;-2.00;100.00;102367.70;1578288;90;21094;-82
2021/11/14 00:40:42;;;;;;;81.25;25.88;;;;;;;-2.00;100.00;102369.89;1578564;90;21063;-82
2021/11/14 00:43:08;;;;;;;98.37;31.60;;;;;;;-2.00;100.00;102369.89;1578631;90;21601;-82
2021/11/14 00:45:38;;;;;;;79.58;29.35;;;;;;;-2.00;100.00;102367.25;1558337;90;21135;-82
2021/11/14 00:48:05;;;;;;;75.83;26.75;;;;;;;-2.01;100.00;102365.55;1578672;90;21546;-82
2021/11/14 00:50:33;;;;;;;67.65;26.57;;;;;;;-1.98;100.00;102366.61;1578383;90;21119;-82
2021/11/14 00:53:00;;;;;;;66.72;24.10;;;;;;;-1.98;100.00;102372.38;1578660;90;21109;-82
2021/11/14 00:55:30;;;;;;;79.92;25.45;;;;;;;-1.99;100.00;102371.55;1578355;90;21042;-82
2021/11/14 00:57:55;;;;;;;68.85;25.62;;;;;;;-1.99;100.00;102379.97;1578584;90;21114;-82
2021/11/14 01:00:24;;;;;;;84.17;27.82;;;;;;;-2.00;100.00;102379.59;1578515;90;20939;-82
2021/11/14 01:02:52;;;;;;;83.62;26.75;;;;;;;-2.00;100.00;102384.88;1578379;90;21525;-82
2021/11/14 01:05:19;;;;;;;82.65;28.02;;;;;;;-2.01;100.00;102376.61;1589661;88;21937;-82
2021/11/14 01:07:46;;;;;;;74.10;27.13;;;;;;;-1.99;100.00;102380.80;1591750;90;21514;-82
2021/11/14 01:10:17;;;;;;;78.17;26.50;;;;;;;-1.99;100.00;102381.28;1591888;90;21116;-82
2021/11/14 01:12:44;;;;;;;69.15;25.68;;;;;;;-1.96;100.00;102377.06;1587834;90;20971;-82
2021/11/14 01:15:12;;;;;;;66.67;23.32;;;;;;;-1.96;100.00;102376.57;1583831;90;21595;-82
2021/11/14 01:17:39;;;;;;;70.95;24.85;;;;;;;-1.97;100.00;102372.27;1586691;90;21064;-82
2021/11/14 01:20:10;;;;;;;63.92;23.92;;;;;;;-1.96;100.00;102373.92;1586200;90;21564;-82
2021/11/14 01:22:37;;;;;;;68.10;24.57;;;;;;;-1.93;100.00;102374.98;1586739;90;21298;-82
2021/11/14 01:25:05;;;;;;;71.77;24.98;;;;;;;-1.94;100.00;102372.00;1583943;90;21045;-82
2021/11/14 01:27:32;;;;;;;74.65;26.85;;;;;;;-1.96;100.00;102373.92;1587724;89;21075;-82
2021/11/14 01:29:58;;;;;;;75.92;25.95;;;;;;;-1.95;100.00;102373.44;1587018;90;21101;-82
2021/11/14 01:32:25;;;;;;;65.05;23.75;;;;;;;-1.96;100.00;102375.25;1586446;90;21120;-82
2021/11/14 01:34:51;;;;;;;71.62;24.75;;;;;;;-1.99;100.00;102382.61;1625190;88;21519;-82
2021/11/14 01:37:17;;;;;;;62.05;23.70;;;;;;;-2.06;100.00;102383.60;1625560;87;21021;-82
2021/11/14 01:39:43;;;;;;;83.67;27.10;;;;;;;-2.10;100.00;102380.39;1626389;87;21038;-82
2021/11/14 01:42:09;;;;;;;70.08;24.87;;;;;;;-2.07;100.00;102381.94;1626464;87;20935;-82
2021/11/14 01:44:35;;;;;;;63.02;22.65;;;;;;;-2.06;100.00;102375.67;1626336;87;21007;-82
2021/11/14 01:47:01;;;;;;;72.95;24.95;;;;;;;-2.04;100.00;102379.52;1626592;87;22011;-82
2021/11/14 01:49:28;;;;;;;71.53;22.95;;;;;;;-2.05;100.00;102378.69;1626599;87;20986;-82
2021/11/14 01:51:54;;;;;;;58.60;21.80;;;;;;;-2.04;100.00;102389.59;1625991;87;21018;-82
2021/11/14 01:54:22;;;;;;;59.88;21.05;;;;;;;-2.03;100.00;102383.82;1625880;87;21022;-81
2021/11/14 01:56:49;;;;;;;69.12;22.67;;;;;;;-2.02;100.00;102381.55;1624590;88;21062;-82
2021/11/14 01:59:15;;;;;;;71.12;23.50;;;;;;;-2.03;100.00;102383.34;1626106;87;21909;-81
2021/11/14 02:01:42;;;;;;;60.15;20.25;;;;;;;-2.04;100.00;102381.67;1626039;87;22189;-82
2021/11/14 02:04:08;;;;;;;51.48;20.82;;;;;;;-2.06;100.00;102382.28;1626666;87;20970;-81
2021/11/14 02:06:40;;;;;;;62.05;19.45;;;;;;;-2.07;100.00;102380.13;1626172;88;21082;-82
2021/11/14 02:09:07;;;;;;;52.00;19.27;;;;;;;-2.07;100.00;102377.98;1626582;87;21529;-82
2021/11/14 02:11:34;;;;;;;53.85;18.07;;;;;;;-2.10;100.00;102383.52;1626480;87;22016;-82
2021/11/14 02:14:00;;;;;;;46.48;16.52;;;;;;;-2.18;100.00;102380.21;1626049;88;21161;-81
2021/11/14 02:16:29;;;;;;;51.37;17.60;;;;;;;-2.26;100.00;102384.48;1626422;87;20923;-82
2021/11/14 02:18:55;;;;;;;48.08;15.85;;;;;;;-2.33;100.00;102388.12;1625959;87;21042;-81
2021/11/14 02:21:22;;;;;;;48.73;16.90;;;;;;;-2.37;100.00;102388.88;1625909;88;21007;-82
2021/11/14 02:23:49;;;;;;;51.48;15.88;;;;;;;-2.41;100.00;102387.48;1626616;87;21103;-81
2021/11/14 02:26:15;;;;;;;45.23;15.70;;;;;;;-2.45;100.00;102390.49;1626465;87;21070;-81
2021/11/14 02:28:42;;;;;;;52.33;16.93;;;;;;;-2.54;100.00;102396.06;1626518;87;20923;-81
2021/11/14 02:31:09;;;;;;;45.78;16.35;;;;;;;-2.55;100.00;102395.72;1624794;87;21050;-81
2021/11/14 02:33:36;;;;;;;45.65;15.48;;;;;;;-2.53;100.00;102401.69;1615247;87;21080;-81
2021/11/14 02:36:06;;;;;;;46.98;17.60;;;;;;;-2.55;100.00;102394.41;1591186;89;21123;-81
2021/11/14 02:38:33;;;;;;;48.73;17.70;;;;;;;-2.56;100.00;102398.85;1543983;92;21072;-81
2021/11/14 02:41:00;;;;;;;49.38;17.98;;;;;;;-2.58;100.00;102399.94;1543886;92;21049;-81
2021/11/14 02:43:27;;;;;;;49.83;16.30;;;;;;;-2.57;100.00;102401.61;1543907;92;21722;-82
2021/11/14 02:45:53;;;;;;;50.67;18.17;;;;;;;-2.57;100.00;102402.92;1544003;92;21084;-81
2021/11/14 02:48:21;;;;;;;43.65;16.10;;;;;;;-2.60;100.00;102401.86;1541756;92;21206;-81
2021/11/14 02:50:51;;;;;;;49.70;17.82;;;;;;;-2.64;100.00;102399.97;1543396;92;21069;-81
2021/11/14 02:53:17;;;;;;;64.80;19.75;;;;;;;-2.65;100.00;102394.80;1543926;92;21064;-81
2021/11/14 02:55:44;;;;;;;65.35;20.20;;;;;;;-2.64;100.00;102401.78;1543964;92;21048;-81
2021/11/14 02:58:11;;;;;;;80.50;27.60;;;;;;;-2.65;100.00;102398.27;1544020;92;21599;-81
2021/11/14 03:00:48;;;;;;;174.68;56.48;;;;;;;-2.65;100.00;102396.95;1573285;91;21137;-81
2021/11/14 03:03:15;;;;;;;159.80;54.93;;;;;;;-2.64;100.00;102397.33;1501092;94;21099;-81
2021/11/14 03:05:42;;;;;;;135.35;46.85;;;;;;;-2.65;100.00;102397.45;1501273;95;21711;-82
2021/11/14 03:08:08;;;;;;;111.90;44.65;;;;;;;-2.62;100.00;102402.01;1475781;97;21099;-81
2021/11/14 03:10:35;;;;;;;113.85;41.23;;;;;;;-2.61;100.00;102401.52;1478478;97;21122;-81
2021/11/14 03:13:11;;;;;;;69.92;25.97;;;;;;;-2.60;100.00;102399.22;1478495;96;22034;-81
2021/11/14 03:15:41;;;;;;;64.32;22.82;;;;;;;-2.58;100.00;102398.13;1468128;97;21133;-81
2021/11/14 03:18:08;;;;;;;59.38;21.70;;;;;;;-2.55;100.00;102403.64;1470829;97;21188;-81
2021/11/14 03:20:38;;;;;;;68.15;23.62;;;;;;;-2.55;100.00;102402.32;1463970;97;21100;-81
2021/11/14 03:23:05;;;;;;;85.12;28.90;;;;;;;-2.53;100.00;102401.69;1463526;98;21568;-81
2021/11/14 03:25:33;;;;;;;80.53;27.85;;;;;;;-2.50;100.00;102400.11;1463659;98;22021;-81
2021/11/14 03:28:00;;;;;;;60.48;21.75;;;;;;;-2.48;100.00;102408.75;1463558;98;21082;-81
2021/11/14 03:30:28;;;;;;;60.28;21.82;;;;;;;-2.48;100.00;102406.11;1463480;98;21085;-82
2021/11/14 03:32:55;;;;;;;59.00;18.60;;;;;;;-2.47;100.00;102406.94;1463480;98;21109;-81
2021/11/14 03:35:23;;;;;;;50.55;19.17;;;;;;;-2.45;100.00;102397.09;1446517;97;37987;-82
2021/11/14 03:37:49;;;;;;;51.20;17.50;;;;;;;-2.44;100.00;102400.08;1456856;98;22103;-81
2021/11/14 03:40:18;;;;;;;57.45;19.62;;;;;;;-2.43;100.00;102403.09;1456944;98;21668;-81
2021/11/14 03:42:45;;;;;;;54.30;19.00;;;;;;;-2.40;100.00;102398.88;1447696;99;21058;-81
2021/11/14 03:45:11;;;;;;;64.77;20.20;;;;;;;-2.40;100.00;102396.23;1447576;99;21040;-81
2021/11/14 03:47:39;;;;;;;60.67;20.70;;;;;;;-2.41;100.00;102398.04;1449012;99;21589;-81
2021/11/14 03:50:09;;;;;;;68.47;22.00;;;;;;;-2.41;100.00;102396.72;1447513;99;21981;-81
2021/11/14 03:52:38;;;;;;;64.00;22.05;;;;;;;-2.40;100.00;102401.02;1447438;99;21228;-81
2021/11/14 03:55:06;;;;;;;60.78;21.27;;;;;;;-2.40;100.00;102400.19;1447458;99;21083;-81
2021/11/14 03:57:32;;;;;;;56.85;21.27;;;;;;;-2.39;100.00;102404.49;1447481;99;21547;-81
2021/11/14 03:59:58;;;;;;;58.98;20.23;;;;;;;-2.40;100.00;102402.34;1496776;93;21280;-81
2021/11/14 04:02:25;;;;;;;73.00;26.60;;;;;;;-2.40;100.00;102399.70;1554396;92;21160;-82
2021/11/14 04:04:51;;;;;;;70.05;24.18;;;;;;;-2.39;100.00;102399.22;1554186;92;21104;-81
2021/11/14 04:07:17;;;;;;;70.83;23.70;;;;;;;-2.41;100.00;102399.36;1584282;90;20984;-81
2021/11/14 04:09:43;;;;;;;69.35;23.55;;;;;;;-2.38;100.00;102401.73;1563803;90;21031;-82
2021/11/14 04:12:09;;;;;;;65.03;23.05;;;;;;;-2.37;100.00;102403.40;1584409;90;20984;-81
2021/11/14 04:14:35;;;;;;;61.40;21.70;;;;;;;-2.38;100.00;102408.34;1584124;90;21904;-81
2021/11/14 04:17:01;;;;;;;60.25;22.37;;;;;;;-2.36;100.00;102406.88;1584070;90;20924;-81
2021/11/14 04:19:27;;;;;;;73.05;25.10;;;;;;;-2.36;100.00;102402.91;1613893;88;21528;-81
2021/11/14 04:21:56;;;;;;;68.02;26.87;;;;;;;-2.36;100.00;102405.55;1627591;87;20964;-81
2021/11/14 04:24:22;;;;;;;65.62;22.65;;;;;;;-2.36;100.00;102406.38;1627562;88;20965;-81
2021/11/14 04:26:48;;;;;;;64.05;21.30;;;;;;;-2.38;100.00;102405.70;1627550;88;21648;-81
2021/11/14 04:29:14;;;;;;;57.23;21.70;;;;;;;-2.38;100.00;102409.66;1627363;88;21562;-81
2021/11/14 04:31:40;;;;;;;61.13;22.48;;;;;;;-2.39;100.00;102411.92;1627600;87;21059;-81
2021/11/14 04:34:06;;;;;;;62.13;22.93;;;;;;;-2.39;100.00;102417.69;1634908;86;21613;-81
2021/11/14 04:36:33;;;;;;;54.18;20.60;;;;;;;-2.43;100.00;102415.80;1652360;86;20916;-81
2021/11/14 04:38:59;;;;;;;52.75;20.15;;;;;;;-2.45;100.00;102419.04;1652256;86;21107;-81
2021/11/14 04:41:24;;;;;;;55.25;19.32;;;;;;;-2.46;100.00;102425.30;1652244;86;20962;-81
2021/11/14 04:43:50;;;;;;;61.53;21.10;;;;;;;-2.45;100.00;102424.32;1654111;86;20917;-81
2021/11/14 04:46:16;;;;;;;56.25;20.77;;;;;;;-2.44;100.00;102424.70;1623572;86;20909;-81
2021/11/14 04:48:42;;;;;;;64.95;20.85;;;;;;;-2.40;100.00;102431.38;1654746;86;20892;-82
2021/11/14 04:51:08;;;;;;;58.87;20.57;;;;;;;-2.38;100.00;102434.73;1653474;84;20987;-81
2021/11/14 04:53:34;;;;;;;60.70;20.05;;;;;;;-2.37;100.00;102438.20;1654694;86;20988;-82
2021/11/14 04:56:00;;;;;;;56.50;19.05;;;;;;;-2.36;100.00;102439.38;1654522;86;20928;-82
2021/11/14 04:58:26;;;;;;;65.42;19.60;;;;;;;-2.31;100.00;102449.08;1653082;86;21007;-81
2021/11/14 05:00:54;;;;;;;50.40;17.90;;;;;;;-2.25;100.00;102448.22;1653128;86;20885;-82
2021/11/14 05:03:21;;;;;;;59.08;20.57;;;;;;;-2.20;100.00;102450.00;1654562;86;21881;-82
2021/11/14 05:05:47;;;;;;;57.90;20.37;;;;;;;-2.16;100.00;102452.23;1653082;86;21469;-81
2021/11/14 05:08:13;;;;;;;57.10;20.40;;;;;;;-2.09;100.00;102454.72;1654607;86;21044;-82
2021/11/14 05:10:43;;;;;;;62.62;21.85;;;;;;;-2.01;100.00;102461.97;1654516;86;21055;-82
2021/11/14 05:13:08;;;;;;;61.45;21.48;;;;;;;-1.92;100.00;102466.47;1654317;86;20973;-82
2021/11/14 05:15:34;;;;;;;66.45;22.02;;;;;;;-1.83;100.00;102468.31;1654732;86;21165;-82
2021/11/14 05:18:02;;;;;;;85.28;30.15;;;;;;;-1.74;100.00;102468.01;1654557;86;21056;-82
2021/11/14 05:20:28;;;;;;;85.12;29.42;;;;;;;-1.66;100.00;102472.16;1623634;86;21530;-82
2021/11/14 05:22:54;;;;;;;81.55;28.05;;;;;;;-1.57;100.00;102478.94;1653171;84;21099;-82
2021/11/14 05:25:21;;;;;;;94.50;32.28;;;;;;;-1.53;100.00;102482.52;1654726;86;20955;-82
2021/11/14 05:27:47;;;;;;;80.05;26.85;;;;;;;-1.45;100.00;102485.30;1648971;86;21085;-82
2021/11/14 05:30:15;;;;;;;71.07;23.60;;;;;;;-1.30;100.00;102483.62;1653362;84;21063;-82
2021/11/14 05:32:41;;;;;;;63.08;19.67;;;;;;;-1.12;100.00;102483.30;1654584;86;21067;-82
2021/11/14 05:35:08;;;;;;;63.20;19.57;;;;;;;-0.95;100.00;102480.48;1656162;86;21602;-83
2021/11/14 05:37:35;;;;;;;52.25;17.42;;;;;;;-0.84;100.00;102475.08;1658822;86;20963;-82
2021/11/14 05:40:02;;;;;;;58.90;18.48;;;;;;;-0.67;100.00;102481.50;1658496;86;21274;-82
2021/11/14 05:42:28;;;;;;;49.70;15.83;;;;;;;-0.39;100.00;102481.63;1658788;86;21041;-82
2021/11/14 05:44:54;;;;;;;50.28;17.10;;;;;;;0.33;100.00;102486.34;1658824;86;20950;-82
2021/11/14 05:47:20;;;;;;;44.40;16.02;;;;;;;1.09;100.00;102470.66;1658923;86;20860;-83
2021/11/14 05:49:46;;;;;;;41.83;15.63;;;;;;;1.59;100.00;102478.08;1656745;85;20955;-83
2021/11/14 05:52:12;;;;;;;42.95;15.20;;;;;;;2.34;100.00;102474.40;1658955;86;21680;-84
2021/11/14 05:54:38;;;;;;;41.37;15.72;;;;;;;3.09;100.00;102474.97;1658708;86;21533;-83
2021/11/14 05:57:04;;;;;;;41.15;15.10;;;;;;;3.85;100.00;102481.36;1659025;86;20931;-83
2021/11/14 05:59:47;;;;;;;40.00;14.73;;;;;;;4.50;100.00;102480.36;1655002;86;21069;-83
2021/11/14 06:02:12;;;;;;;38.63;15.75;;;;;;;5.21;100.00;102474.98;1654914;86;20950;-83
2021/11/14 06:07:20;;;;;;;63.73;24.90;;;;;;;6.25;100.00;102472.56;1658625;86;21543;-83
2021/11/14 06:09:46;;;;;;;97.02;34.80;;;;;;;6.95;100.00;102477.37;1658937;86;21023;-83
2021/11/14 06:12:13;;;;;;;107.52;41.28;;;;;;;8.15;100.00;102475.23;1640122;86;20978;-83
2021/11/14 06:14:39;;;;;;;91.17;34.50;;;;;;;10.79;100.00;102464.07;1659056;86;21065;-83
2021/11/14 06:17:05;;;;;;;70.15;29.23;;;;;;;10.79;100.00;102464.07;1658478;86;21508;-83
2021/11/14 06:19:31;;;;;;;73.10;21.62;;;;;;;12.07;100.00;102476.46;1658944;86;21042;-83
2021/11/14 06:21:59;;;;;;;52.27;20.65;;;;;;;13.22;100.00;102474.84;1658832;86;20938;-83
2021/11/14 06:24:25;;;;;;;55.58;20.48;;;;;;;14.33;100.00;102479.12;1634745;86;21151;-83
2021/11/14 06:26:56;;;;;;;54.05;18.45;;;;;;;14.99;93.78;102484.55;1635502;87;21021;-84
2021/11/14 06:29:22;;;;;;;54.67;17.50;;;;;;;15.30;74.89;102469.64;1578538;90;21317;-83
2021/11/14 06:31:47;;;;;;;79.62;19.32;;;;;;;15.28;65.91;102469.59;1578910;90;21018;-82
2021/11/14 06:34:13;;;;;;;43.17;16.95;;;;;;;15.69;64.35;102471.13;1578772;90;21073;-82
2021/11/14 06:36:39;;;;;;;35.70;15.72;;;;;;;16.22;62.75;102468.36;1579063;90;20927;-83
2021/11/14 06:39:05;;;;;;;30.72;14.98;;;;;;;15.97;54.85;102474.79;1579052;90;20956;-83
2021/11/14 06:41:31;;;;;;;29.07;15.10;;;;;;;15.44;53.54;102474.20;1579065;90;22088;-84
2021/11/14 06:43:57;;;;;;;33.18;15.60;;;;;;;15.42;54.27;102475.83;1578876;90;20927;-84
2021/11/14 06:46:23;;;;;;;33.73;16.17;;;;;;;15.83;53.36;102471.07;1578876;90;20922;-84
2021/11/14 06:48:48;;;;;;;39.33;16.27;;;;;;;16.31;53.97;102474.19;1578863;90;21077;-84
2021/11/14 06:51:16;;;;;;;30.62;16.25;;;;;;;16.73;52.25;102466.25;1579192;90;20935;-84
2021/11/14 06:53:41;;;;;;;36.63;16.32;;;;;;;17.35;53.91;102469.08;1548447;92;21165;-85
2021/11/14 06:56:07;;;;;;;31.52;15.53;;;;;;;18.21;51.08;102463.99;1549441;92;21675;-85
2021/11/14 06:58:33;;;;;;;31.48;16.50;;;;;;;18.66;46.76;102468.53;1549642;92;21019;-84
2021/11/14 07:00:59;;;;;;;32.48;17.45;;;;;;;18.63;46.40;102470.44;1549617;92;20927;-84
2021/11/14 07:03:25;;;;;;;32.25;17.05;;;;;;;18.34;44.34;102470.31;1549507;92;21174;-84
2021/11/14 07:05:51;;;;;;;33.02;17.20;;;;;;;18.49;45.83;102470.11;1561444;90;21212;-84
2021/11/14 07:08:17;;;;;;;35.60;18.15;;;;;;;18.75;45.67;102463.67;1555898;91;20921;-84
2021/11/14 07:10:43;;;;;;;32.65;17.85;;;;;;;18.86;43.03;102468.62;1545668;92;21024;-86
2021/11/14 07:13:09;;;;;;;32.38;17.07;;;;;;;18.76;42.87;102465.30;1545393;92;21180;-86
2021/11/14 07:15:35;;;;;;;36.73;18.62;;;;;;;19.07;43.71;102455.81;1552223;90;21134;-86
2021/11/14 07:18:00;;;;;;;32.73;18.05;;;;;;;19.50;41.58;102456.36;1570812;91;21169;-87
2021/11/14 07:20:27;;;;;;;39.03;19.17;;;;;;;18.99;41.48;102453.61;1571164;91;21770;-86
2021/11/14 07:22:53;;;;;;;41.10;20.40;;;;;;;19.03;41.15;102453.33;1570960;91;21548;-86
2021/11/14 07:25:19;;;;;;;36.05;18.87;;;;;;;18.90;41.02;102448.41;1564463;88;20957;-86
2021/11/14 07:27:50;;;;;;;39.88;21.00;;;;;;;19.10;41.31;102450.36;1621732;88;21020;-85
2021/11/14 07:30:17;;;;;;;43.42;20.30;;;;;;;19.42;40.29;102448.18;1654281;86;21245;-85
2021/11/14 07:32:43;;;;;;;45.08;20.95;;;;;;;19.82;39.86;102445.69;1654313;86;21013;-85
2021/11/14 07:35:13;;;;;;;41.85;20.70;;;;;;;20.13;39.42;102438.23;1657031;86;21014;-85
2021/11/14 07:37:39;;;;;;;39.67;20.37;;;;;;;19.92;38.45;102449.23;1630838;87;21087;-85
2021/11/14 07:40:08;;;;;;;40.98;21.37;;;;;;;20.15;39.60;102437.41;1648439;85;21041;-85
2021/11/14 07:42:36;;;;;;;34.63;19.07;;;;;;;21.08;38.50;102442.66;1656712;86;21495;-85
2021/11/14 07:45:06;;;;;;;38.15;19.48;;;;;;;21.76;38.86;102447.30;1626328;88;21047;-85
2021/11/14 07:47:32;;;;;;;37.53;19.77;;;;;;;22.25;36.65;102439.94;1626759;88;21008;-85
2021/11/14 07:49:58;;;;;;;40.95;20.45;;;;;;;22.58;35.73;102438.11;1626851;88;21031;-86
2021/11/14 07:52:25;;;;;;;41.55;21.05;;;;;;;22.67;35.53;102438.52;1626783;88;21008;-86
2021/11/14 07:54:52;;;;;;;42.62;20.50;;;;;;;22.44;34.92;102437.48;1626358;88;21955;-85
2021/11/14 07:59:48;;;;;;;44.90;20.90;;;;;;;22.40;35.70;102436.42;1572874;90;21059;-85
2021/11/14 08:02:14;;;;;;;41.88;20.97;;;;;;;22.98;36.54;102433.17;1589289;90;20904;-85
2021/11/14 08:04:40;;;;;;;42.88;21.17;;;;;;;23.77;33.92;102437.34;1589359;90;21117;-86
2021/11/14 08:07:06;;;;;;;38.73;20.35;;;;;;;23.68;33.02;102435.82;1568458;90;21126;-85
2021/11/14 08:09:32;;;;;;;40.78;20.70;;;;;;;23.14;33.18;102427.67;1564521;90;21175;-85
2021/11/14 08:11:58;;;;;;;39.33;20.10;;;;;;;23.07;33.45;102430.81;1589222;90;21022;-85
2021/11/14 08:14:24;;;;;;;44.10;20.35;;;;;;;22.94;33.82;102430.15;1568178;90;21109;-86
2021/11/14 08:16:52;;;;;;;43.33;19.77;;;;;;;22.45;33.14;102421.25;1589175;90;21082;-85
2021/11/14 08:19:17;;;;;;;45.67;20.27;;;;;;;21.80;34.40;102418.19;1564520;91;21265;-85
2021/11/14 08:21:43;;;;;;;43.05;19.92;;;;;;;20.52;34.18;102416.96;1592935;89;20926;-86
2021/11/14 08:24:09;;;;;;;42.83;19.77;;;;;;;18.07;36.65;102424.07;1593790;89;21011;-86
2021/11/14 08:26:35;;;;;;;52.05;19.35;;;;;;;15.96;39.24;102422.30;1622113;88;20985;-87
2021/11/14 08:29:01;;;;;;;47.08;20.23;;;;;;;14.27;42.44;102426.66;1593261;89;20939;-87
2021/11/14 08:31:27;;;;;;;47.10;20.10;;;;;;;12.94;45.39;102426.19;1593411;89;21953;-87
2021/11/14 08:33:53;;;;;;;43.55;19.23;;;;;;;11.98;48.01;102423.23;1593945;89;21261;-87
2021/11/14 08:36:19;;;;;;;52.75;19.73;;;;;;;11.20;51.35;102422.33;1584007;89;21169;-87
2021/11/14 08:38:46;;;;;;;45.85;18.57;;;;;;;10.64;56.01;102420.39;1579763;90;21008;-86
2021/11/14 08:41:13;;;;;;;43.65;19.35;;;;;;;10.36;63.53;102419.38;1584395;90;20972;-88
2021/11/14 08:43:40;;;;;;;52.27;19.32;;;;;;;10.02;69.67;102413.22;1566275;90;21127;-89
2021/11/14 08:46:08;;;;;;;51.85;19.60;;;;;;;9.89;77.00;102411.41;1573944;91;21183;-89
2021/11/14 08:48:34;;;;;;;54.30;18.25;;;;;;;9.86;79.06;102411.00;1574411;91;21040;-89
2021/11/14 08:51:00;;;;;;;53.15;20.37;;;;;;;9.76;82.88;102410.91;1574290;91;21015;-88
2021/11/14 08:53:26;;;;;;;45.75;17.60;;;;;;;9.56;86.49;102408.77;1574132;91;21653;-88
2021/11/14 08:55:55;;;;;;;51.60;18.15;;;;;;;9.35;88.99;102404.91;1553955;91;22122;-88
2021/11/14 08:58:22;;;;;;;50.30;18.32;;;;;;;9.16;94.49;102400.67;1512888;94;21118;-88
2021/11/14 09:00:48;;;;;;;49.73;18.52;;;;;;;9.07;97.56;102405.42;1566111;91;21022;-88
2021/11/14 09:03:14;;;;;;;42.40;17.90;;;;;;;8.95;99.18;102400.34;1551266;91;21061;-88
2021/11/14 09:05:40;;;;;;;53.00;17.92;;;;;;;8.81;100.00;102399.99;1566499;89;21538;-89
2021/11/14 09:08:07;;;;;;;47.90;18.15;;;;;;;8.72;100.00;102394.49;1549822;92;21125;-88
2021/11/14 09:10:35;;;;;;;55.25;18.55;;;;;;;8.53;100.00;102386.67;1604883;89;21029;-87
2021/11/14 09:13:02;;;;;;;47.88;17.75;;;;;;;8.44;100.00;102384.67;1569687;91;21392;-86
2021/11/14 09:15:30;;;;;;;43.45;16.23;;;;;;;8.37;100.00;102383.80;1602560;89;21107;-87
2021/11/14 09:17:58;;;;;;;52.25;17.07;;;;;;;8.33;100.00;102389.27;1569774;91;21071;-85
2021/11/14 09:20:26;;;;;;;42.13;16.20;;;;;;;8.26;100.00;102378.48;1569197;91;21162;-85
2021/11/14 09:22:58;;;;;;;46.88;17.02;;;;;;;8.30;100.00;102378.41;1545943;92;21128;-85
2021/11/14 09:25:39;;;;;;;;;;;;;;;;;;;;;
2021/11/14 09:27:57;;;;;;;50.65;16.37;;;;;;;8.27;100.00;102373.96;1503051;95;21058;-85
2021/11/14 09:30:23;;;;;;;41.83;16.17;;;;;;;8.37;100.00;102370.37;1503422;95;21114;-85
2021/11/14 09:32:49;;;;;;;47.10;16.75;;;;;;;8.37;100.00;102367.16;1503458;95;21485;-85
2021/11/14 09:35:15;;;;;;;46.25;15.58;;;;;;;8.34;100.00;102359.51;1501373;93;21165;-85
2021/11/14 09:37:41;;;;;;;43.42;14.40;;;;;;;8.30;100.00;102356.92;1493471;96;21147;-85
2021/11/14 09:40:09;;;;;;;38.35;14.35;;;;;;;8.32;100.00;102348.13;1493603;96;21144;-86
2021/11/14 09:42:37;;;;;;;43.80;15.05;;;;;;;8.36;100.00;102350.74;1493529;96;21644;-85
2021/11/14 09:45:06;;;;;;;38.05;13.95;;;;;;;8.34;100.00;102350.11;1493227;96;21911;-85
2021/11/14 09:47:33;;;;;;;37.33;14.30;;;;;;;8.31;100.00;102345.66;1493524;96;21253;-85
2021/11/14 09:50:03;;;;;;;39.67;14.20;;;;;;;8.31;100.00;102343.80;1493591;95;21119;-86
2021/11/14 09:52:29;;;;;;;38.45;14.30;;;;;;;8.30;100.00;102339.98;1493402;96;21091;-85
2021/11/14 09:54:55;;;;;;;36.83;14.28;;;;;;;8.39;100.00;102334.77;1490171;95;21099;-86
2021/11/14 09:57:21;;;;;;;40.70;14.15;;;;;;;8.39;100.00;102336.94;1451554;97;21772;-86
2021/11/14 09:59:49;;;;;;;37.13;14.18;;;;;;;8.41;100.00;102326.83;1510748;94;21051;-86
2021/11/14 10:02:18;;;;;;;39.60;15.00;;;;;;;8.40;100.00;102325.16;1545299;92;21070;-85
2021/11/14 10:04:45;;;;;;;39.73;12.00;;;;;;;8.35;100.00;102319.55;1541715;92;21177;-86
2021/11/14 10:07:15;;;;;;;37.33;13.68;;;;;;;8.41;100.00;102317.42;1544851;92;21837;-85
2021/11/14 10:09:49;;;;;;;35.55;13.28;;;;;;;8.41;100.00;102313.39;1491447;95;22255;-86
2021/11/14 10:12:25;;;;;;;40.85;14.28;;;;;;;8.47;100.00;102315.79;1478226;95;21067;-87
2021/11/14 10:15:12;;;;;;;35.88;12.98;;;;;;;8.55;100.00;102314.75;1491575;95;21116;-86
2021/11/14 10:17:41;;;;;;;34.30;12.82;;;;;;;8.60;100.00;102314.98;1466973;96;21011;-87
2021/11/14 10:20:19;;;;;;;32.20;11.30;;;;;;;8.63;100.00;102303.82;1462779;95;21103;-87
2021/11/14 10:22:50;;;;;;;33.20;12.23;;;;;;;8.66;100.00;102308.78;1457450;95;21179;-87
2021/11/14 10:25:18;;;;;;;37.90;12.47;;;;;;;8.74;100.00;102310.46;1476559;95;21098;-87
2021/11/14 10:27:53;;;;;;;35.43;13.60;;;;;;;8.81;100.00;102308.59;1473065;95;21027;-87
2021/11/14 10:30:24;;;;;;;36.10;13.25;;;;;;;8.86;100.00;102304.78;1476504;95;21031;-87
2021/11/14 10:32:54;;;;;;;35.52;13.75;;;;;;;8.88;100.00;102300.00;1476057;95;21587;-87
2021/11/14 10:35:22;;;;;;;38.38;12.50;;;;;;;8.87;100.00;102297.02;1477144;95;21212;-89
2021/11/14 10:37:49;;;;;;;34.23;12.45;;;;;;;8.89;100.00;102304.89;1484345;95;21639;-88
2021/11/14 10:40:22;;;;;;;35.13;12.37;;;;;;;8.90;100.00;102305.19;1437903;97;21498;-88
2021/11/14 10:42:51;;;;;;;;;;;;;;;8.85;100.00;102295.89;1456120;97;21186;-89
2021/11/14 10:45:19;;;;;;;36.83;11.80;;;;;;;8.91;100.00;102300.11;1451050;97;20557;-90
2021/11/14 10:47:58;;;;;;;34.85;13.55;;;;;;;8.97;100.00;102295.25;1444247;97;21647;-90
2021/11/14 10:50:28;;;;;;;41.73;12.35;;;;;;;8.96;100.00;102297.12;1444260;97;21122;-90
2021/11/14 10:53:05;;;;;;;34.30;12.13;;;;;;;9.00;100.00;102293.48;1429371;97;21065;-91
2021/11/14 10:55:45;;;;;;;36.40;12.93;;;;;;;9.00;100.00;102283.59;1486343;95;21565;-91
2021/11/14 10:58:13;;;;;;;34.65;12.37;;;;;;;9.01;100.00;102285.23;1419186;101;21113;-91
2021/11/14 11:00:41;;;;;;;37.90;12.53;;;;;;;9.05;100.00;102277.05;1405743;100;21165;-91
2021/11/14 11:03:10;;;;;;;36.93;12.70;;;;;;;9.08;100.00;102282.53;1384371;102;21197;-91
2021/11/14 11:05:37;;;;;;;41.53;14.05;;;;;;;9.07;100.00;102277.67;1421120;99;21656;-92
2021/11/14 11:08:11;;;;;;;34.85;12.45;;;;;;;9.09;100.00;102274.79;1419928;101;21668;-91
2021/11/14 11:10:41;;;;;;;37.50;12.85;;;;;;;9.09;100.00;102280.99;1420389;100;21099;-91
2021/11/14 11:13:15;;;;;;;39.08;14.55;;;;;;;9.05;100.00;102281.60;1415838;100;21324;-92